createdAt,value
2023-02-16T00:01:34.339Z,15.80
2023-02-16T00:04:18.404Z,13.00
2023-02-16T00:06:47.174Z,9.50
2023-02-16T00:09:15.382Z,10.90
2023-02-16T00:12:02.585Z,13.70
2023-02-16T00:14:37.408Z,13.00
2023-02-16T00:17:06.967Z,16.80
2023-02-16T00:19:36.981Z,12.60
2023-02-16T00:22:06.336Z,16.50
2023-02-16T00:24:34.848Z,13.30
2023-02-16T00:27:03.294Z,14.00
2023-02-16T00:29:33.678Z,10.90
2023-02-16T00:32:03.419Z,12.60
2023-02-16T00:34:36.939Z,17.20
2023-02-16T00:37:07.128Z,14.00
2023-02-16T00:39:36.774Z,14.60
2023-02-16T00:42:07.624Z,32.50
2023-02-16T00:44:43.558Z,27.70
2023-02-16T00:47:32.933Z,45.60
2023-02-16T00:50:01.157Z,33.00
2023-02-16T00:52:29.491Z,42.00
2023-02-16T00:54:58.794Z,39.30
2023-02-16T00:57:28.190Z,47.70
2023-02-16T01:00:13.298Z,49.10
2023-02-16T01:02:43.713Z,35.00
2023-02-16T01:05:12.713Z,42.60
2023-02-16T01:08:00.001Z,48.10
2023-02-16T01:10:47.500Z,56.80
2023-02-16T01:13:22.690Z,30.50
2023-02-16T01:15:51.044Z,30.40
2023-02-16T01:18:19.631Z,21.10
2023-02-16T01:20:48.573Z,19.60
2023-02-16T01:23:18.168Z,17.20
2023-02-16T01:25:46.404Z,20.70
2023-02-16T01:28:23.286Z,15.70
2023-02-16T01:30:52.598Z,20.90
2023-02-16T01:33:21.190Z,17.10
2023-02-16T01:35:51.191Z,16.70
2023-02-16T01:38:22.325Z,17.80
2023-02-16T01:41:24.768Z,22.90
2023-02-16T01:44:04.357Z,16.30
2023-02-16T01:46:40.663Z,17.80
2023-02-16T01:49:13.730Z,15.40
2023-02-16T01:52:16.089Z,16.10
2023-02-16T01:55:19.093Z,21.00
2023-02-16T01:58:01.795Z,23.80
2023-02-16T02:00:49.340Z,18.80
2023-02-16T02:03:52.932Z,15.50
2023-02-16T02:06:24.372Z,20.00
2023-02-16T02:09:11.008Z,20.60
2023-02-16T02:11:47.326Z,26.30
2023-02-16T02:14:30.795Z,26.10
2023-02-16T02:17:10.155Z,21.50
2023-02-16T02:19:49.516Z,26.10
2023-02-16T02:22:46.036Z,25.90
2023-02-16T02:25:32.997Z,25.10
2023-02-16T02:28:24.644Z,22.20
2023-02-16T02:31:30.358Z,24.30
2023-02-16T02:34:10.759Z,18.20
2023-02-16T02:36:49.916Z,27.80
2023-02-16T02:39:48.369Z,30.00
2023-02-16T02:42:24.383Z,24.20
2023-02-16T02:44:56.506Z,29.80
2023-02-16T02:47:42.817Z,33.80
2023-02-16T02:50:41.282Z,38.90
2023-02-16T02:53:13.604Z,31.20
2023-02-16T02:56:06.208Z,28.30
2023-02-16T02:58:54.108Z,31.90
2023-02-16T03:01:22.224Z,61.90
2023-02-16T03:03:52.266Z,105.10
2023-02-16T03:06:26.792Z,55.20
2023-02-16T03:08:59.841Z,39.30
2023-02-16T03:11:48.385Z,29.20
2023-02-16T03:14:44.734Z,39.50
2023-02-16T03:17:34.722Z,21.30
2023-02-16T03:20:24.824Z,19.60
2023-02-16T03:23:11.990Z,23.90
2023-02-16T03:25:58.941Z,22.10
2023-02-16T03:28:48.415Z,26.50
2023-02-16T03:31:19.089Z,16.20
2023-02-16T03:36:15.898Z,18.40
2023-02-16T03:38:46.289Z,15.30
2023-02-16T03:41:14.318Z,15.50
2023-02-16T03:43:42.534Z,17.40
2023-02-16T03:46:10.843Z,15.00
2023-02-16T03:48:39.534Z,16.90
2023-02-16T03:51:08.535Z,17.70
2023-02-16T03:53:37.428Z,16.60
2023-02-16T03:56:06.320Z,19.20
2023-02-16T03:58:34.926Z,16.40
2023-02-16T04:01:03.316Z,20.20
2023-02-16T04:03:31.806Z,16.80
2023-02-16T04:06:01.375Z,16.20
2023-02-16T04:08:30.139Z,19.40
2023-02-16T04:11:00.613Z,15.90
2023-02-16T04:13:29.796Z,15.30
2023-02-16T04:15:58.280Z,18.70
2023-02-16T04:18:29.330Z,18.30
2023-02-16T04:20:58.303Z,17.40
2023-02-16T04:23:26.429Z,13.20
2023-02-16T04:25:54.657Z,14.00
2023-02-16T04:28:22.719Z,18.60
2023-02-16T04:30:52.088Z,16.20
2023-02-16T04:33:22.351Z,14.40
2023-02-16T04:35:50.762Z,18.00
2023-02-16T04:38:18.800Z,22.40
2023-02-16T04:40:47.437Z,21.30
2023-02-16T04:43:15.878Z,17.80
2023-02-16T04:45:44.194Z,22.20
2023-02-16T04:48:12.447Z,20.60
2023-02-16T04:50:41.211Z,23.60
2023-02-16T04:53:09.457Z,22.90
2023-02-16T04:55:38.352Z,21.10
2023-02-16T04:58:06.966Z,25.30
2023-02-16T05:00:36.645Z,26.90
2023-02-16T05:03:05.372Z,31.00
2023-02-16T05:05:35.289Z,27.70
2023-02-16T05:08:03.870Z,36.40
2023-02-16T05:10:33.674Z,38.90
2023-02-16T05:13:21.415Z,50.80
2023-02-16T05:15:50.630Z,46.50
2023-02-16T05:18:18.796Z,35.10
2023-02-16T05:21:12.450Z,43.30
2023-02-16T05:23:40.642Z,48.20
2023-02-16T05:26:08.903Z,52.80
2023-02-16T05:28:39.074Z,42.80
2023-02-16T05:31:07.445Z,51.50
2023-02-16T05:33:36.397Z,46.50
2023-02-16T05:36:04.917Z,36.80
2023-02-16T05:38:33.262Z,33.70
2023-02-16T05:41:01.804Z,34.10
2023-02-16T05:43:30.428Z,33.10
2023-02-16T05:45:58.513Z,37.80
2023-02-16T05:48:26.600Z,42.70
2023-02-16T05:50:55.053Z,33.00
2023-02-16T05:53:25.126Z,49.10
2023-02-16T05:55:53.575Z,65.30
2023-02-16T05:58:21.833Z,27.20
2023-02-16T06:00:50.625Z,35.20
2023-02-16T06:03:18.806Z,58.50
2023-02-16T06:05:47.311Z,32.70
2023-02-16T06:08:16.791Z,26.70
2023-02-16T06:10:46.090Z,25.60
2023-02-16T06:13:15.436Z,26.80
2023-02-16T06:15:44.921Z,25.80
2023-02-16T06:18:13.477Z,21.50
2023-02-16T06:20:41.783Z,24.30
2023-02-16T06:23:11.847Z,24.10
2023-02-16T06:25:48.651Z,21.40
2023-02-16T06:28:17.134Z,24.60
2023-02-16T06:30:46.025Z,24.40
2023-02-16T06:33:14.713Z,26.10
2023-02-16T06:35:42.892Z,24.70
2023-02-16T06:38:11.309Z,23.60
2023-02-16T06:40:39.563Z,20.70
2023-02-16T06:43:07.721Z,16.70
2023-02-16T06:45:35.939Z,16.50
2023-02-16T06:48:05.051Z,16.00
2023-02-16T06:50:33.927Z,22.00
2023-02-16T06:53:03.699Z,15.70
2023-02-16T06:55:36.848Z,14.40
2023-02-16T06:58:06.778Z,28.30
2023-02-16T07:00:35.836Z,20.30
2023-02-16T07:03:04.192Z,18.70
2023-02-16T07:05:32.409Z,73.20
2023-02-16T07:08:01.050Z,34.00
2023-02-16T07:10:40.400Z,18.10
2023-02-16T07:13:16.126Z,19.30
2023-02-16T07:15:47.235Z,13.90
2023-02-16T07:18:16.686Z,12.50
2023-02-16T07:20:45.363Z,13.60
2023-02-16T07:23:14.251Z,13.50
2023-02-16T07:25:42.697Z,14.60
2023-02-16T07:28:11.684Z,16.70
2023-02-16T07:30:40.729Z,12.10
2023-02-16T07:33:09.683Z,13.80
2023-02-16T07:35:37.975Z,14.40
2023-02-16T07:38:06.567Z,12.60
2023-02-16T07:40:35.976Z,12.70
2023-02-16T07:43:07.573Z,14.00
2023-02-16T07:45:37.630Z,17.80
2023-02-16T07:48:05.794Z,12.70
2023-02-16T07:50:34.164Z,13.90
2023-02-16T07:53:03.019Z,15.80
2023-02-16T07:55:32.701Z,10.40
2023-02-16T07:58:01.587Z,13.20
2023-02-16T08:00:30.650Z,12.20
2023-02-16T08:02:59.484Z,11.90
2023-02-16T08:05:28.963Z,13.90
2023-02-16T08:07:58.139Z,14.20
2023-02-16T08:10:29.998Z,14.60
2023-02-16T08:12:58.318Z,13.80
2023-02-16T08:15:26.408Z,18.60
2023-02-16T08:17:55.329Z,16.00
2023-02-16T08:20:45.166Z,15.00
2023-02-16T08:23:13.351Z,13.90
2023-02-16T08:25:41.729Z,11.30
2023-02-16T08:28:10.212Z,10.50
2023-02-16T08:30:38.611Z,10.20
2023-02-16T08:33:07.599Z,16.50
2023-02-16T08:35:38.723Z,12.60
2023-02-16T08:38:09.199Z,18.80
2023-02-16T08:40:39.071Z,12.70
2023-02-16T08:43:07.586Z,9.60
2023-02-16T08:45:35.897Z,7.30
2023-02-16T08:48:04.819Z,12.10
2023-02-16T08:50:33.074Z,7.40
2023-02-16T08:53:05.987Z,4.70
2023-02-16T08:55:38.762Z,8.60
2023-02-16T08:58:07.245Z,6.80
2023-02-16T09:00:38.074Z,7.90
2023-02-16T09:03:07.799Z,6.40
2023-02-16T09:05:35.960Z,6.00
2023-02-16T09:08:04.241Z,8.50
2023-02-16T09:10:33.135Z,6.00
2023-02-16T09:13:03.666Z,5.80
2023-02-16T09:15:33.712Z,5.90
2023-02-16T09:18:03.094Z,4.50
2023-02-16T09:20:31.360Z,4.40
2023-02-16T09:22:59.737Z,7.40
2023-02-16T09:25:28.015Z,8.30
2023-02-16T09:27:58.153Z,4.60
2023-02-16T09:30:26.365Z,5.90
2023-02-16T09:32:55.505Z,5.80
2023-02-16T09:35:23.578Z,6.50
2023-02-16T09:37:52.115Z,4.50
2023-02-16T09:40:21.074Z,5.70
2023-02-16T09:43:08.479Z,6.00
2023-02-16T09:45:41.758Z,10.30
2023-02-16T09:48:43.011Z,19.90
2023-02-16T09:51:33.767Z,7.20
2023-02-16T09:54:35.084Z,9.00
2023-02-16T09:57:42.397Z,5.00
2023-02-16T10:00:23.580Z,12.40
2023-02-16T10:03:18.282Z,5.00
2023-02-16T10:05:53.337Z,5.30
2023-02-16T10:08:25.515Z,6.10
2023-02-16T10:11:00.667Z,6.50
2023-02-16T10:13:47.240Z,7.30
2023-02-16T10:16:19.366Z,5.20
2023-02-16T10:18:49.482Z,13.30
2023-02-16T10:21:21.887Z,23.10
2023-02-16T10:24:02.234Z,13.70
2023-02-16T10:26:39.766Z,13.50
2023-02-16T10:29:11.387Z,6.60
2023-02-16T10:31:52.769Z,8.20
2023-02-16T10:34:36.496Z,6.40
2023-02-16T10:37:09.690Z,8.00
2023-02-16T10:40:12.709Z,7.40
2023-02-16T10:42:44.997Z,6.40
2023-02-16T10:45:42.465Z,4.80
2023-02-16T10:48:10.771Z,6.30
2023-02-16T10:50:44.119Z,5.40
2023-02-16T10:53:15.910Z,6.00
2023-02-16T10:55:43.936Z,6.50
2023-02-16T10:58:21.220Z,7.70
2023-02-16T11:00:58.658Z,6.40
2023-02-16T11:03:29.934Z,7.90
2023-02-16T11:08:30.112Z,5.50
2023-02-16T11:10:58.800Z,8.10
2023-02-16T11:13:29.980Z,10.60
2023-02-16T11:16:05.216Z,6.20
2023-02-16T11:18:39.733Z,4.40
2023-02-16T11:21:08.769Z,6.90
2023-02-16T11:23:43.942Z,5.60
2023-02-16T11:26:12.263Z,5.00
2023-02-16T11:28:49.730Z,6.50
2023-02-16T11:31:28.489Z,6.00
2023-02-16T11:34:04.888Z,8.10
2023-02-16T11:36:47.013Z,7.80
2023-02-16T11:41:56.319Z,16.00
2023-02-16T11:44:53.229Z,9.60
2023-02-16T11:47:30.666Z,6.70
2023-02-16T11:50:22.702Z,8.30
2023-02-16T11:52:52.789Z,8.30
2023-02-16T11:55:33.477Z,8.60
2023-02-16T11:58:21.293Z,9.60
2023-02-16T12:00:55.515Z,6.50
2023-02-16T12:03:52.535Z,5.90
2023-02-16T12:06:50.389Z,9.50
2023-02-16T12:09:31.094Z,6.20
2023-02-16T12:12:12.214Z,8.20
2023-02-16T12:15:13.790Z,6.10
2023-02-16T12:17:54.976Z,5.80
2023-02-16T12:20:47.584Z,8.20
2023-02-16T12:23:23.145Z,5.40
2023-02-16T12:25:55.145Z,7.30
2023-02-16T12:28:29.337Z,8.10
2023-02-16T12:31:22.312Z,7.90
2023-02-16T12:33:50.713Z,11.80
2023-02-16T12:36:44.113Z,9.80
2023-02-16T12:39:29.751Z,8.30
2023-02-16T12:42:12.109Z,9.60
2023-02-16T12:44:48.777Z,6.70
2023-02-16T12:47:29.219Z,11.90
2023-02-16T12:50:02.228Z,8.60
2023-02-16T12:52:41.610Z,57.80
2023-02-16T12:55:49.061Z,42.50
2023-02-16T12:58:21.542Z,31.10
2023-02-16T13:00:52.351Z,14.70
2023-02-16T13:03:39.678Z,5.60
2023-02-16T13:06:18.781Z,6.20
2023-02-16T13:08:59.219Z,7.50
2023-02-16T13:11:36.010Z,8.00
2023-02-16T13:14:06.904Z,6.00
2023-02-16T13:16:42.606Z,8.80
2023-02-16T13:19:13.262Z,11.20
2023-02-16T13:22:06.683Z,18.80
2023-02-16T13:25:00.482Z,19.80
2023-02-16T13:27:54.153Z,15.70
2023-02-16T13:30:48.939Z,11.10
2023-02-16T13:33:37.526Z,10.40
2023-02-16T13:36:10.655Z,10.60
2023-02-16T13:39:16.396Z,7.50
2023-02-16T13:41:55.653Z,7.10
2023-02-16T13:44:24.961Z,8.80
2023-02-16T13:46:53.899Z,8.40
2023-02-16T13:49:43.201Z,5.50
2023-02-16T13:52:37.924Z,8.10
2023-02-16T13:55:45.137Z,8.50
2023-02-16T13:58:13.500Z,10.00
2023-02-16T14:00:47.741Z,7.10
2023-02-16T14:03:22.244Z,12.70
2023-02-16T14:06:27.022Z,9.30
2023-02-16T14:09:16.132Z,8.70
2023-02-16T14:16:39.356Z,8.40
2023-02-16T14:19:25.185Z,12.00
2023-02-16T14:21:53.356Z,7.60
2023-02-16T14:24:27.533Z,14.70
2023-02-16T14:27:04.639Z,16.10
2023-02-16T14:29:39.213Z,40.50
2023-02-16T14:32:13.796Z,47.20
2023-02-16T14:39:10.589Z,63.70
2023-02-16T14:41:39.393Z,48.80
2023-02-16T14:44:07.439Z,19.20
2023-02-16T14:46:42.454Z,24.10
2023-02-16T14:49:40.711Z,21.40
2023-02-16T14:52:37.320Z,19.50
2023-02-16T14:55:39.606Z,18.80
2023-02-16T14:58:22.232Z,26.80
2023-02-16T15:00:59.851Z,25.70
2023-02-16T15:03:39.233Z,27.90
2023-02-16T15:06:09.257Z,27.00
2023-02-16T15:08:40.230Z,23.20
2023-02-16T15:11:11.491Z,26.90
2023-02-16T15:13:39.598Z,28.00
2023-02-16T15:16:13.895Z,20.90
2023-02-16T15:19:09.610Z,24.30
2023-02-16T15:21:38.576Z,24.90
2023-02-16T15:24:22.088Z,23.10
2023-02-16T15:26:56.115Z,29.00
2023-02-16T15:29:29.405Z,34.60
2023-02-16T15:31:58.803Z,34.90
2023-02-16T15:34:36.306Z,37.60
2023-02-16T15:37:22.301Z,45.40
2023-02-16T15:40:08.705Z,58.60
2023-02-16T15:42:39.882Z,50.60
2023-02-16T15:45:29.771Z,44.30
2023-02-16T15:48:14.513Z,45.40
2023-02-16T15:50:43.830Z,37.90
2023-02-16T15:53:13.836Z,33.90
2023-02-16T15:55:45.936Z,23.90
2023-02-16T15:58:15.071Z,22.90
2023-02-16T16:00:44.979Z,18.50
2023-02-16T16:05:55.665Z,28.20
2023-02-16T16:08:25.700Z,22.60
2023-02-16T16:10:53.874Z,22.60
2023-02-16T16:13:29.645Z,22.10
2023-02-16T16:16:01.833Z,22.40
2023-02-16T16:18:44.492Z,31.20
2023-02-16T16:21:23.679Z,25.30
2023-02-16T16:24:10.033Z,24.00
2023-02-16T16:26:52.526Z,22.70
2023-02-16T16:29:42.124Z,28.70
2023-02-16T16:32:18.397Z,30.10
2023-02-16T16:34:56.177Z,31.90
2023-02-16T16:37:25.425Z,30.70
2023-02-16T16:40:18.908Z,30.20
2023-02-16T16:43:03.475Z,37.70
2023-02-16T16:45:40.601Z,36.70
2023-02-16T16:48:17.902Z,39.10
2023-02-16T16:50:46.593Z,36.60
2023-02-16T16:53:30.668Z,41.80
2023-02-16T16:56:01.185Z,42.20
2023-02-16T16:58:30.583Z,50.00
2023-02-16T17:00:58.921Z,42.50
2023-02-16T17:03:28.336Z,46.50
2023-02-16T17:06:00.271Z,54.10
2023-02-16T17:08:30.654Z,55.40
2023-02-16T17:11:01.699Z,58.50
2023-02-16T17:13:33.793Z,60.70
2023-02-16T17:16:10.880Z,55.50
2023-02-16T17:18:42.759Z,57.90
2023-02-16T17:23:52.873Z,51.40
2023-02-16T17:26:24.660Z,47.80
2023-02-16T17:28:55.773Z,55.80
2023-02-16T17:31:28.767Z,51.40
2023-02-16T17:34:00.794Z,50.50
2023-02-16T17:36:32.446Z,47.80
2023-02-16T17:41:35.556Z,61.80
2023-02-16T17:44:06.968Z,62.00
2023-02-16T17:46:43.183Z,62.40
2023-02-16T17:49:13.926Z,69.10
2023-02-16T17:51:45.201Z,72.40
2023-02-16T17:54:16.205Z,69.60
2023-02-16T17:59:19.032Z,64.20
2023-02-16T18:01:50.037Z,63.80
2023-02-16T18:04:21.968Z,67.30
2023-02-16T18:14:26.290Z,54.70
2023-02-16T18:16:55.171Z,49.40
2023-02-16T18:19:22.091Z,41.90
2023-02-16T18:24:20.995Z,32.00
2023-02-16T18:26:55.544Z,36.70
2023-02-16T18:29:23.496Z,41.40
2023-02-16T18:31:51.392Z,37.10
2023-02-16T18:34:21.791Z,41.10
2023-02-16T18:36:49.077Z,38.60
2023-02-16T18:39:16.518Z,42.00
2023-02-16T18:41:43.561Z,218.70
2023-02-16T18:44:11.530Z,206.40
2023-02-16T18:46:38.777Z,73.20
2023-02-16T18:49:09.923Z,56.00
2023-02-16T18:51:37.156Z,39.90
2023-02-16T18:54:04.748Z,34.20
2023-02-16T18:56:34.960Z,30.90
2023-02-16T18:59:03.438Z,26.70
2023-02-16T19:01:31.959Z,33.40
2023-02-16T19:06:30.217Z,25.70
2023-02-16T19:08:59.052Z,24.90
2023-02-16T19:11:30.847Z,22.60
2023-02-16T19:16:27.643Z,18.00
2023-02-16T19:18:55.194Z,21.20
2023-02-16T19:21:23.155Z,19.60
2023-02-16T19:23:51.635Z,20.70
2023-02-16T19:26:18.618Z,17.70
2023-02-16T19:28:46.552Z,20.10
2023-02-16T19:31:30.253Z,23.40
2023-02-16T19:33:58.498Z,20.50
2023-02-16T19:36:26.540Z,19.30
2023-02-16T19:38:54.826Z,222.40
2023-02-16T19:41:25.047Z,30.30
2023-02-16T19:43:52.539Z,25.40
2023-02-16T19:46:19.439Z,22.40
2023-02-16T19:48:48.950Z,22.50
2023-02-16T19:51:16.299Z,20.70
2023-02-16T19:53:43.674Z,18.10
2023-02-16T19:56:15.919Z,19.80
2023-02-16T19:58:44.650Z,18.30
2023-02-16T20:01:16.731Z,16.80
2023-02-16T20:03:43.547Z,16.20
2023-02-16T20:06:25.002Z,16.40
2023-02-16T20:08:55.546Z,15.80
2023-02-16T20:11:24.224Z,17.90
2023-02-16T20:13:51.708Z,16.70
2023-02-16T20:16:20.213Z,12.30
2023-02-16T20:18:48.039Z,11.60
2023-02-16T20:21:17.878Z,10.30
2023-02-16T20:23:45.196Z,15.00
2023-02-16T20:26:18.357Z,13.70
2023-02-16T20:28:45.562Z,14.80
2023-02-16T20:31:15.482Z,13.60
2023-02-16T20:33:43.224Z,17.10
2023-02-16T20:36:10.781Z,21.00
2023-02-16T20:38:38.295Z,16.40
2023-02-16T20:41:05.223Z,20.40
2023-02-16T20:43:33.123Z,24.50
2023-02-16T20:46:02.158Z,24.40
2023-02-16T20:48:30.660Z,29.20
2023-02-16T20:50:59.458Z,26.20
2023-02-16T20:53:29.234Z,19.40
2023-02-16T20:56:17.494Z,17.30
2023-02-16T20:58:50.382Z,16.00
2023-02-16T21:01:22.238Z,16.00
2023-02-16T21:03:50.027Z,17.90
2023-02-16T21:06:17.036Z,17.10
2023-02-16T21:08:44.285Z,16.90
2023-02-16T21:11:11.128Z,18.40
2023-02-16T21:13:38.333Z,13.60
2023-02-16T21:16:08.738Z,15.40
2023-02-16T21:18:38.768Z,15.70
2023-02-16T21:21:07.326Z,15.50
2023-02-16T21:23:35.585Z,13.00
2023-02-16T21:26:04.028Z,13.60
2023-02-16T21:28:31.150Z,10.60
2023-02-16T21:31:05.206Z,14.20
2023-02-16T21:33:32.722Z,13.30
2023-02-16T21:36:08.179Z,16.00
2023-02-16T21:38:35.411Z,15.40
2023-02-16T21:41:24.366Z,13.00
2023-02-16T21:44:22.485Z,15.70
2023-02-16T21:46:49.677Z,17.90
2023-02-16T21:49:18.725Z,15.90
2023-02-16T21:51:46.461Z,15.50
2023-02-16T21:54:38.408Z,13.80
2023-02-16T21:57:05.314Z,15.20
2023-02-16T21:59:32.343Z,14.80
2023-02-16T22:01:59.213Z,16.90
2023-02-16T22:04:29.410Z,15.10
2023-02-16T22:06:56.551Z,15.50
2023-02-16T22:09:23.573Z,18.10
2023-02-16T22:11:50.449Z,19.60
2023-02-16T22:14:17.504Z,22.40
2023-02-16T22:16:47.643Z,17.60
2023-02-16T22:19:15.754Z,19.30
2023-02-16T22:21:43.586Z,14.20
2023-02-16T22:24:11.779Z,16.20
2023-02-16T22:26:38.907Z,14.40
2023-02-16T22:29:06.879Z,17.70
2023-02-16T22:31:34.215Z,15.50
2023-02-16T22:34:03.742Z,16.90
2023-02-16T22:36:31.208Z,14.60
2023-02-16T22:39:00.292Z,16.00
2023-02-16T22:41:27.667Z,16.60
2023-02-16T22:43:55.336Z,19.40
2023-02-16T22:46:22.877Z,14.30
2023-02-16T22:48:50.052Z,11.30
2023-02-16T22:51:17.631Z,10.00
2023-02-16T22:53:44.529Z,10.10
2023-02-16T22:56:17.124Z,11.30
2023-02-16T22:58:46.343Z,10.80
2023-02-16T23:01:15.130Z,10.00
2023-02-16T23:03:49.788Z,12.90
2023-02-16T23:06:18.420Z,9.90
2023-02-16T23:08:45.853Z,11.50
2023-02-16T23:11:14.140Z,10.30
2023-02-16T23:13:41.087Z,12.50
2023-02-16T23:16:15.325Z,11.70
2023-02-16T23:18:42.517Z,11.70
2023-02-16T23:21:23.256Z,9.40
2023-02-16T23:23:50.795Z,11.90
2023-02-16T23:26:21.414Z,8.80
2023-02-16T23:28:52.681Z,11.80
2023-02-16T23:31:22.801Z,12.30
2023-02-16T23:33:49.944Z,10.70
2023-02-16T23:36:16.692Z,10.10
2023-02-16T23:38:43.631Z,12.40
2023-02-16T23:41:11.799Z,9.40
2023-02-16T23:43:39.019Z,9.30
2023-02-16T23:46:06.269Z,12.90
2023-02-16T23:48:33.354Z,12.40
2023-02-16T23:51:00.425Z,10.50
2023-02-16T23:53:27.754Z,11.50
2023-02-16T23:56:01.554Z,7.20
2023-02-16T23:58:40.635Z,11.10
